createdAt,value
2019-01-27T00:02:24.428Z,93.31
2019-01-27T00:04:51.864Z,93.42
2019-01-27T00:07:19.298Z,93.13
2019-01-27T00:09:47.802Z,93.17
2019-01-27T00:12:16.168Z,93.47
2019-01-27T00:14:43.596Z,92.92
2019-01-27T00:17:11.197Z,92.78
2019-01-27T00:19:38.714Z,93.19
2019-01-27T00:22:06.147Z,93.08
2019-01-27T00:24:33.638Z,92.92
2019-01-27T00:27:01.122Z,92.55
2019-01-27T00:29:28.582Z,92.50
2019-01-27T00:31:56.033Z,92.30
2019-01-27T00:34:23.631Z,92.00
2019-01-27T00:36:51.128Z,92.34
2019-01-27T00:39:20.074Z,92.04
2019-01-27T00:41:48.347Z,91.89
2019-01-27T00:44:16.339Z,92.18
2019-01-27T00:46:44.036Z,91.72
2019-01-27T00:49:11.605Z,91.58
2019-01-27T00:51:39.116Z,91.70
2019-01-27T00:54:06.660Z,91.56
2019-01-27T00:56:34.274Z,92.36
2019-01-27T00:59:01.909Z,93.12
2019-01-27T01:01:29.407Z,93.38
2019-01-27T01:03:56.885Z,92.89
2019-01-27T01:06:24.466Z,92.99
2019-01-27T01:08:52.222Z,92.97
2019-01-27T01:11:19.724Z,93.11
2019-01-27T01:13:47.170Z,93.46
2019-01-27T01:16:14.587Z,93.84
2019-01-27T01:18:42.096Z,94.25
2019-01-27T01:21:09.557Z,93.77
2019-01-27T01:23:36.982Z,94.00
2019-01-27T01:26:04.754Z,94.78
2019-01-27T01:28:32.221Z,95.05
2019-01-27T01:30:59.680Z,95.04
2019-01-27T01:33:27.176Z,94.63
2019-01-27T01:35:55.752Z,94.36
2019-01-27T01:38:23.230Z,94.22
2019-01-27T01:40:50.688Z,94.44
2019-01-27T01:43:18.204Z,94.43
2019-01-27T01:45:46.035Z,94.35
2019-01-27T01:48:13.907Z,94.31
2019-01-27T01:50:41.377Z,94.48
2019-01-27T01:53:09.072Z,94.49
2019-01-27T01:55:36.536Z,94.32
2019-01-27T01:58:03.998Z,94.12
2019-01-27T02:00:31.428Z,94.22
2019-01-27T02:02:58.883Z,94.97
2019-01-27T02:05:26.300Z,94.69
2019-01-27T02:07:53.803Z,95.11
2019-01-27T02:10:21.215Z,94.81
2019-01-27T02:12:48.840Z,94.52
2019-01-27T02:15:19.929Z,94.44
2019-01-27T02:17:47.680Z,94.65
2019-01-27T02:20:15.106Z,94.57
2019-01-27T02:22:42.539Z,94.47
2019-01-27T02:25:09.980Z,94.19
2019-01-27T02:27:37.486Z,94.21
2019-01-27T02:30:05.120Z,94.16
2019-01-27T02:32:32.543Z,93.73
2019-01-27T02:34:59.972Z,93.62
2019-01-27T02:37:27.570Z,93.51
2019-01-27T02:39:55.157Z,93.96
2019-01-27T02:42:22.727Z,94.17
2019-01-27T02:44:50.678Z,94.51
2019-01-27T02:47:18.465Z,95.00
2019-01-27T02:49:45.910Z,94.95
2019-01-27T02:52:13.649Z,94.56
2019-01-27T02:54:42.040Z,94.72
2019-01-27T02:57:09.769Z,95.04
2019-01-27T02:59:37.209Z,94.89
2019-01-27T03:02:04.677Z,94.62
2019-01-27T03:04:32.109Z,94.70
2019-01-27T03:06:59.627Z,94.34
2019-01-27T03:09:27.085Z,94.44
2019-01-27T03:11:54.554Z,94.13
2019-01-27T03:14:21.992Z,94.15
2019-01-27T03:16:49.585Z,93.81
2019-01-27T03:19:18.106Z,93.50
2019-01-27T03:21:45.864Z,93.35
2019-01-27T03:24:13.295Z,93.24
2019-01-27T03:26:41.282Z,93.42
2019-01-27T03:29:08.732Z,93.24
2019-01-27T03:31:36.213Z,93.12
2019-01-27T03:34:03.650Z,93.12
2019-01-27T03:36:31.275Z,93.16
2019-01-27T03:38:58.741Z,93.21
2019-01-27T03:41:26.217Z,93.58
2019-01-27T03:43:53.812Z,93.61
2019-01-27T03:46:21.863Z,94.40
2019-01-27T03:48:49.367Z,94.60
2019-01-27T03:51:16.817Z,94.53
2019-01-27T03:53:44.296Z,94.35
2019-01-27T03:56:11.727Z,94.33
2019-01-27T03:58:39.399Z,94.74
2019-01-27T04:01:07.271Z,94.58
2019-01-27T04:03:34.946Z,94.31
2019-01-27T04:06:02.470Z,94.06
2019-01-27T04:08:29.947Z,93.99
2019-01-27T04:10:57.436Z,93.66
2019-01-27T04:13:24.891Z,93.78
2019-01-27T04:15:52.720Z,93.66
2019-01-27T04:18:20.173Z,93.25
2019-01-27T04:20:47.601Z,93.07
2019-01-27T04:23:15.070Z,92.82
2019-01-27T04:25:42.832Z,92.79
2019-01-27T04:28:11.491Z,92.99
2019-01-27T04:30:37.923Z,92.99
2019-01-27T04:33:05.380Z,92.87
2019-01-27T04:35:32.886Z,92.60
2019-01-27T04:38:00.367Z,92.91
2019-01-27T04:40:27.830Z,92.94
2019-01-27T04:42:55.350Z,92.77
2019-01-27T04:45:23.555Z,92.61
2019-01-27T04:47:51.030Z,92.45
2019-01-27T04:50:18.510Z,92.58
2019-01-27T04:52:45.983Z,92.60
2019-01-27T04:55:16.359Z,93.07
2019-01-27T04:57:43.829Z,92.65
2019-01-27T05:00:12.953Z,92.18
2019-01-27T05:02:40.423Z,92.44
2019-01-27T05:05:08.948Z,91.91
2019-01-27T05:07:36.483Z,92.35
2019-01-27T05:10:03.900Z,92.48
2019-01-27T05:12:31.335Z,92.62
2019-01-27T05:14:58.812Z,92.84
2019-01-27T05:17:26.247Z,93.34
2019-01-27T05:19:53.777Z,93.53
2019-01-27T05:22:21.217Z,93.57
2019-01-27T05:24:48.665Z,93.78
2019-01-27T05:27:17.726Z,93.62
2019-01-27T05:29:45.239Z,93.30
2019-01-27T05:32:12.691Z,93.42
2019-01-27T05:34:40.172Z,93.53
2019-01-27T05:37:07.639Z,94.08
2019-01-27T05:39:35.104Z,93.75
2019-01-27T05:42:02.544Z,93.34
2019-01-27T05:44:30.029Z,92.79
2019-01-27T05:46:57.519Z,93.12
2019-01-27T05:49:24.952Z,92.86
2019-01-27T05:51:52.401Z,92.67
2019-01-27T05:54:20.229Z,92.41
2019-01-27T05:56:47.387Z,92.51
2019-01-27T05:59:14.847Z,92.37
2019-01-27T06:01:42.320Z,92.68
2019-01-27T06:04:09.771Z,92.44
2019-01-27T06:06:37.248Z,92.53
2019-01-27T06:09:04.727Z,92.18
2019-01-27T06:11:32.164Z,91.86
2019-01-27T06:13:59.611Z,91.65
2019-01-27T06:16:27.071Z,91.96
2019-01-27T06:18:55.002Z,92.57
2019-01-27T06:21:22.449Z,92.15
2019-01-27T06:23:50.822Z,92.49
2019-01-27T06:26:18.424Z,92.57
2019-01-27T06:28:45.929Z,92.53
2019-01-27T06:31:13.375Z,92.34
2019-01-27T06:33:40.822Z,92.01
2019-01-27T06:36:08.322Z,92.48
2019-01-27T06:38:35.791Z,92.72
2019-01-27T06:41:03.270Z,92.54
2019-01-27T06:43:30.763Z,92.71
2019-01-27T06:45:58.544Z,92.84
2019-01-27T06:48:26.099Z,93.89
2019-01-27T06:50:53.539Z,94.11
2019-01-27T06:53:21.010Z,94.46
2019-01-27T06:55:48.487Z,94.18
2019-01-27T06:58:16.208Z,93.73
2019-01-27T07:00:49.117Z,93.38
2019-01-27T07:03:20.357Z,93.46
2019-01-27T07:05:47.832Z,93.13
2019-01-27T07:08:32.918Z,93.12
2019-01-27T07:11:05.830Z,92.59
2019-01-27T07:13:33.791Z,91.99
2019-01-27T07:16:16.167Z,92.19
2019-01-27T07:18:58.546Z,91.68
2019-01-27T07:21:33.580Z,91.51
2019-01-27T07:24:06.995Z,91.56
2019-01-27T07:26:34.486Z,91.41
2019-01-27T07:29:04.503Z,91.38
2019-01-27T07:31:46.852Z,91.57
2019-01-27T07:34:19.118Z,91.39
2019-01-27T07:36:53.108Z,91.17
2019-01-27T07:39:36.325Z,91.09
2019-01-27T07:42:04.152Z,90.95
2019-01-27T07:44:37.169Z,91.28
2019-01-27T07:47:04.632Z,91.38
2019-01-27T07:49:37.048Z,91.50
2019-01-27T07:52:08.926Z,91.40
2019-01-27T07:54:36.358Z,91.07
2019-01-27T07:57:19.601Z,91.29
2019-01-27T07:59:51.574Z,91.42
2019-01-27T08:02:33.916Z,91.33
2019-01-27T08:05:18.129Z,91.15
2019-01-27T08:07:51.041Z,91.15
2019-01-27T08:10:24.087Z,90.86
2019-01-27T08:13:06.432Z,90.78
2019-01-27T08:15:50.609Z,90.58
2019-01-27T08:18:18.053Z,90.26
2019-01-27T08:20:47.021Z,90.23
2019-01-27T08:23:14.502Z,90.32
2019-01-27T08:25:42.432Z,90.49
2019-01-27T08:28:24.910Z,90.40
2019-01-27T08:30:55.152Z,90.74
2019-01-27T08:33:29.121Z,90.95
2019-01-27T08:35:59.020Z,90.81
2019-01-27T08:38:37.296Z,91.06
2019-01-27T08:41:14.678Z,90.95
2019-01-27T08:43:43.540Z,90.97
2019-01-27T08:46:11.000Z,91.08
2019-01-27T08:48:38.435Z,91.20
2019-01-27T08:51:05.986Z,91.66
2019-01-27T08:53:34.181Z,91.22
2019-01-27T08:56:01.960Z,91.21
2019-01-27T08:58:29.405Z,91.43
2019-01-27T09:00:56.902Z,91.24
2019-01-27T09:03:27.713Z,91.19
2019-01-27T09:05:55.937Z,91.50
2019-01-27T09:08:24.502Z,91.57
2019-01-27T09:10:53.657Z,91.61
2019-01-27T09:13:23.604Z,91.73
2019-01-27T09:15:58.463Z,91.50
2019-01-27T09:18:31.722Z,91.64
2019-01-27T09:21:01.548Z,91.80
2019-01-27T09:23:29.917Z,91.80
2019-01-27T09:26:17.143Z,91.73
2019-01-27T09:28:47.755Z,92.00
2019-01-27T09:31:17.000Z,91.80
2019-01-27T09:33:47.971Z,91.79
2019-01-27T09:36:31.936Z,91.71
2019-01-27T09:39:15.086Z,91.44
2019-01-27T09:41:48.222Z,91.44
2019-01-27T09:44:16.741Z,91.36
2019-01-27T09:46:56.837Z,91.36
2019-01-27T09:49:35.457Z,91.03
2019-01-27T09:52:04.140Z,91.07
2019-01-27T09:54:33.469Z,90.82
2019-01-27T09:57:15.791Z,90.63
2019-01-27T09:59:58.148Z,90.41
2019-01-27T10:02:38.246Z,90.67
2019-01-27T10:05:05.683Z,90.95
2019-01-27T10:07:33.490Z,91.03
2019-01-27T10:10:06.471Z,91.19
2019-01-27T10:12:37.319Z,91.67
2019-01-27T10:15:09.689Z,91.74
2019-01-27T10:17:42.787Z,91.86
2019-01-27T10:20:10.657Z,91.82
2019-01-27T10:22:54.847Z,92.24
2019-01-27T10:25:24.734Z,92.45
2019-01-27T10:28:02.159Z,92.13
2019-01-27T10:30:30.042Z,92.58
2019-01-27T10:33:02.911Z,92.30
2019-01-27T10:35:30.356Z,92.37
2019-01-27T10:38:07.738Z,91.99
2019-01-27T10:40:39.854Z,92.16
2019-01-27T10:43:05.470Z,92.06
2019-01-27T10:45:38.469Z,92.02
2019-01-27T10:48:21.340Z,92.10
2019-01-27T10:50:49.747Z,92.08
2019-01-27T10:53:27.113Z,91.89
2019-01-27T10:55:54.585Z,91.84
2019-01-27T10:58:32.748Z,92.48
2019-01-27T11:01:16.081Z,92.30
2019-01-27T11:03:47.284Z,91.85
2019-01-27T11:06:16.008Z,91.96
2019-01-27T11:08:43.882Z,92.18
2019-01-27T11:11:14.825Z,92.33
2019-01-27T11:13:48.026Z,93.21
2019-01-27T11:16:21.839Z,93.13
2019-01-27T11:18:59.198Z,93.69
2019-01-27T11:21:28.174Z,93.21
2019-01-27T11:24:09.245Z,93.19
2019-01-27T11:26:46.605Z,95.19
2019-01-27T11:29:14.996Z,94.48
2019-01-27T11:31:57.333Z,93.75
2019-01-27T11:34:42.476Z,93.71
2019-01-27T11:37:15.587Z,93.65
2019-01-27T11:39:43.974Z,93.28
2019-01-27T11:42:16.917Z,93.15
2019-01-27T11:44:49.885Z,93.23
2019-01-27T11:47:17.805Z,93.14
2019-01-27T11:49:45.313Z,92.93
2019-01-27T11:52:15.645Z,93.37
2019-01-27T11:54:40.389Z,93.54
2019-01-27T11:57:07.941Z,93.05
2019-01-27T11:59:35.389Z,93.71
2019-01-27T12:02:02.815Z,93.59
2019-01-27T12:04:30.301Z,93.83
2019-01-27T12:06:57.831Z,93.67
2019-01-27T12:09:25.302Z,93.77
2019-01-27T12:11:52.773Z,93.70
2019-01-27T12:14:20.221Z,93.37
2019-01-27T12:16:47.717Z,93.51
2019-01-27T12:19:15.185Z,93.90
2019-01-27T12:21:42.649Z,93.97
2019-01-27T12:24:10.119Z,94.42
2019-01-27T12:26:37.567Z,94.30
2019-01-27T12:29:05.011Z,94.15
2019-01-27T12:31:32.517Z,96.69
2019-01-27T12:33:59.955Z,94.71
2019-01-27T12:36:27.392Z,94.64
2019-01-27T12:38:54.877Z,95.09
2019-01-27T12:41:22.342Z,95.02
2019-01-27T12:43:49.795Z,94.76
2019-01-27T12:46:17.231Z,94.25
2019-01-27T12:48:44.707Z,94.33
2019-01-27T12:51:12.160Z,93.99
2019-01-27T12:53:39.634Z,94.24
2019-01-27T12:56:07.119Z,94.01
2019-01-27T12:58:34.572Z,94.11
2019-01-27T13:01:02.443Z,94.26
2019-01-27T13:03:29.925Z,94.47
2019-01-27T13:05:57.415Z,94.54
2019-01-27T13:08:25.944Z,95.11
2019-01-27T13:10:52.322Z,95.57
2019-01-27T13:13:19.771Z,95.92
2019-01-27T13:15:47.299Z,95.56
2019-01-27T13:18:14.833Z,95.72
2019-01-27T13:20:42.271Z,96.01
2019-01-27T13:23:09.732Z,96.00
2019-01-27T13:25:37.165Z,96.17
2019-01-27T13:28:04.689Z,96.30
2019-01-27T13:30:33.003Z,96.08
2019-01-27T13:33:03.262Z,96.28
2019-01-27T13:35:27.969Z,96.65
2019-01-27T13:37:55.478Z,96.75
2019-01-27T13:40:22.949Z,96.45
2019-01-27T13:42:50.388Z,96.36
2019-01-27T13:45:21.363Z,96.61
2019-01-27T13:47:48.785Z,96.84
2019-01-27T13:50:16.333Z,96.65
2019-01-27T13:52:43.778Z,96.67
2019-01-27T13:55:16.992Z,96.33
2019-01-27T13:57:44.426Z,96.26
2019-01-27T14:00:13.784Z,96.46
2019-01-27T14:02:41.280Z,97.09
2019-01-27T14:05:09.546Z,96.99
2019-01-27T14:07:37.033Z,97.20
2019-01-27T14:10:05.417Z,96.88
2019-01-27T14:12:35.664Z,97.02
2019-01-27T14:15:03.821Z,97.00
2019-01-27T14:17:31.254Z,96.96
2019-01-27T14:19:58.718Z,96.94
2019-01-27T14:22:26.181Z,96.44
2019-01-27T14:24:53.664Z,96.99
2019-01-27T14:27:21.127Z,96.78
2019-01-27T14:29:48.543Z,96.44
2019-01-27T14:32:16.278Z,96.67
2019-01-27T14:34:43.749Z,96.25
2019-01-27T14:37:11.184Z,96.22
2019-01-27T14:39:38.644Z,95.82
2019-01-27T14:42:07.113Z,95.87
2019-01-27T14:44:34.571Z,95.83
2019-01-27T14:47:02.030Z,95.66
2019-01-27T14:49:30.509Z,95.58
2019-01-27T14:51:58.051Z,95.38
2019-01-27T14:54:25.521Z,95.41
2019-01-27T14:56:52.966Z,95.82
2019-01-27T14:59:20.444Z,95.88
2019-01-27T15:01:47.905Z,95.84
2019-01-27T15:04:15.364Z,95.51
2019-01-27T15:06:42.802Z,95.69
2019-01-27T15:09:10.277Z,95.88
2019-01-27T15:11:37.711Z,95.69
2019-01-27T15:14:05.156Z,95.21
2019-01-27T15:16:32.800Z,95.19
2019-01-27T15:19:00.220Z,95.11
2019-01-27T15:21:27.704Z,95.39
2019-01-27T15:23:55.127Z,95.45
2019-01-27T15:26:23.640Z,95.77
2019-01-27T15:28:51.164Z,95.75
2019-01-27T15:31:18.626Z,95.63
2019-01-27T15:33:46.051Z,96.17
2019-01-27T15:36:13.551Z,96.55
2019-01-27T15:38:40.974Z,97.31
2019-01-27T15:41:08.443Z,97.53
2019-01-27T15:43:35.898Z,97.26
2019-01-27T15:46:03.332Z,97.09
2019-01-27T15:48:31.773Z,97.41
2019-01-27T15:50:59.735Z,97.06
2019-01-27T15:53:26.744Z,97.22
2019-01-27T15:55:54.202Z,96.99
2019-01-27T15:58:21.644Z,96.93
2019-01-27T16:00:49.112Z,96.18
2019-01-27T16:03:17.613Z,95.51
2019-01-27T16:05:45.116Z,95.14
2019-01-27T16:08:12.586Z,95.06
2019-01-27T16:10:40.043Z,94.87
2019-01-27T16:13:07.498Z,95.25
2019-01-27T16:15:35.021Z,95.91
2019-01-27T16:18:02.453Z,95.77
2019-01-27T16:20:29.931Z,95.78
2019-01-27T16:23:12.949Z,95.51
2019-01-27T16:25:41.478Z,95.48
2019-01-27T16:28:08.593Z,95.11
2019-01-27T16:30:37.430Z,95.11
2019-01-27T16:33:05.387Z,94.69
2019-01-27T16:35:32.916Z,94.29
2019-01-27T16:38:00.402Z,94.10
2019-01-27T16:40:27.943Z,94.19
2019-01-27T16:42:55.521Z,94.49
2019-01-27T16:45:22.918Z,94.24
2019-01-27T16:47:50.365Z,94.19
2019-01-27T16:50:17.882Z,94.55
2019-01-27T16:52:45.297Z,95.32
2019-01-27T16:55:13.514Z,95.36
2019-01-27T16:57:40.980Z,95.45
2019-01-27T17:00:09.980Z,95.59
2019-01-27T17:02:37.423Z,96.22
2019-01-27T17:05:04.896Z,96.27
2019-01-27T17:07:32.337Z,96.04
2019-01-27T17:09:59.820Z,95.89
2019-01-27T17:12:27.258Z,95.92
2019-01-27T17:14:54.727Z,95.72
2019-01-27T17:17:22.166Z,95.59
2019-01-27T17:19:49.588Z,95.56
2019-01-27T17:22:17.023Z,95.45
2019-01-27T17:24:44.550Z,95.45
2019-01-27T17:27:12.093Z,95.43
2019-01-27T17:29:39.577Z,95.56
2019-01-27T17:32:08.045Z,95.81
2019-01-27T17:34:35.482Z,95.89
2019-01-27T17:37:02.916Z,95.90
2019-01-27T17:39:30.381Z,95.53
2019-01-27T17:41:57.836Z,95.42
2019-01-27T17:44:25.299Z,95.47
2019-01-27T17:46:53.348Z,95.76
2019-01-27T17:49:21.362Z,95.57
2019-01-27T17:51:48.814Z,95.58
2019-01-27T17:54:16.281Z,95.34
2019-01-27T17:56:43.734Z,95.11
2019-01-27T17:59:11.676Z,94.65
2019-01-27T18:01:41.242Z,94.34
2019-01-27T18:04:10.651Z,94.23
2019-01-27T18:06:54.672Z,94.01
2019-01-27T18:09:22.144Z,94.17
2019-01-27T18:11:51.402Z,94.19
2019-01-27T18:14:18.875Z,94.14
2019-01-27T18:16:46.359Z,94.32
2019-01-27T18:19:13.785Z,94.59
2019-01-27T18:21:41.255Z,94.76
2019-01-27T18:24:09.330Z,94.61
2019-01-27T18:26:36.770Z,94.17
2019-01-27T18:29:04.216Z,94.19
2019-01-27T18:31:33.399Z,94.10
2019-01-27T18:34:00.957Z,94.07
2019-01-27T18:36:28.717Z,94.07
2019-01-27T18:38:56.249Z,94.05
2019-01-27T18:41:23.760Z,93.62
2019-01-27T18:43:51.242Z,93.77
2019-01-27T18:46:18.717Z,93.95
2019-01-27T18:48:46.159Z,93.62
2019-01-27T18:51:13.627Z,93.48
2019-01-27T18:53:56.963Z,93.67
2019-01-27T18:56:26.329Z,93.54
2019-01-27T18:58:59.431Z,93.29
2019-01-27T19:01:45.666Z,93.10
2019-01-27T19:04:13.548Z,93.48
2019-01-27T19:06:41.850Z,93.48
2019-01-27T19:09:25.924Z,93.24
2019-01-27T19:11:58.763Z,92.97
2019-01-27T19:14:28.630Z,92.83
2019-01-27T19:16:59.488Z,93.06
2019-01-27T19:19:29.814Z,92.91
2019-01-27T19:21:58.058Z,92.97
2019-01-27T19:24:30.031Z,93.02
2019-01-27T19:27:00.622Z,93.28
2019-01-27T19:29:33.058Z,93.03
2019-01-27T19:32:00.552Z,93.31
2019-01-27T19:34:29.612Z,93.12
2019-01-27T19:37:11.971Z,93.09
2019-01-27T19:39:39.974Z,93.23
2019-01-27T19:42:08.453Z,92.88
2019-01-27T19:44:50.775Z,92.86
2019-01-27T19:47:23.894Z,92.89
2019-01-27T19:49:51.370Z,92.77
2019-01-27T19:52:24.389Z,92.88
2019-01-27T19:55:06.845Z,92.92
2019-01-27T19:57:34.340Z,92.66
2019-01-27T20:00:04.185Z,92.80
2019-01-27T20:02:33.968Z,92.90
2019-01-27T20:05:21.292Z,92.48
2019-01-27T20:07:48.780Z,92.80
2019-01-27T20:10:20.164Z,92.46
2019-01-27T20:12:54.725Z,92.56
2019-01-27T20:15:27.790Z,92.90
2019-01-27T20:17:56.716Z,93.31
2019-01-27T20:20:26.662Z,92.87
2019-01-27T20:22:54.167Z,92.78
2019-01-27T20:25:21.624Z,92.44
2019-01-27T20:27:50.867Z,92.21
2019-01-27T20:30:23.886Z,92.68
2019-01-27T20:33:06.271Z,92.41
2019-01-27T20:35:51.800Z,92.70
2019-01-27T20:38:32.173Z,92.58
2019-01-27T20:41:01.340Z,92.49
2019-01-27T20:43:32.894Z,92.43
2019-01-27T20:46:01.515Z,92.57
2019-01-27T20:48:40.878Z,92.53
2019-01-27T20:51:09.090Z,92.32
2019-01-27T20:53:37.887Z,92.47
2019-01-27T20:56:17.009Z,92.38
2019-01-27T20:58:44.636Z,92.23
2019-01-27T21:01:27.411Z,91.91
2019-01-27T21:03:56.001Z,92.29
2019-01-27T21:06:34.443Z,92.07
2019-01-27T21:09:02.446Z,91.61
2019-01-27T21:11:30.307Z,91.43
2019-01-27T21:14:01.305Z,91.67
2019-01-27T21:16:44.030Z,91.97
2019-01-27T21:19:13.852Z,91.65
2019-01-27T21:21:41.389Z,91.67
2019-01-27T21:24:08.954Z,91.73
2019-01-27T21:26:36.663Z,91.84
2019-01-27T21:29:04.276Z,91.32
2019-01-27T21:31:32.656Z,91.42
2019-01-27T21:34:00.304Z,91.63
2019-01-27T21:36:28.057Z,91.54
2019-01-27T21:38:55.925Z,91.30
2019-01-27T21:41:23.764Z,91.34
2019-01-27T21:43:51.696Z,91.10
2019-01-27T21:46:19.504Z,91.39
2019-01-27T21:48:47.070Z,91.00
2019-01-27T21:51:14.757Z,91.19
2019-01-27T21:53:42.319Z,91.15
2019-01-27T21:56:09.877Z,91.31
2019-01-27T21:58:37.379Z,91.81
2019-01-27T22:01:05.026Z,92.24
2019-01-27T22:03:32.788Z,92.28
2019-01-27T22:06:00.630Z,92.62
2019-01-27T22:08:28.162Z,93.06
2019-01-27T22:10:55.593Z,92.86
2019-01-27T22:13:23.127Z,92.97
2019-01-27T22:15:50.591Z,93.35
2019-01-27T22:18:18.018Z,93.41
2019-01-27T22:20:45.471Z,92.98
2019-01-27T22:23:12.945Z,93.15
2019-01-27T22:25:40.406Z,93.49
2019-01-27T22:28:07.890Z,93.30
2019-01-27T22:30:35.366Z,93.58
2019-01-27T22:33:02.855Z,93.61
2019-01-27T22:35:30.295Z,93.76
2019-01-27T22:37:57.785Z,93.58
2019-01-27T22:40:25.302Z,93.25
2019-01-27T22:42:52.792Z,92.99
2019-01-27T22:45:20.357Z,93.36
2019-01-27T22:47:47.896Z,93.32
2019-01-27T22:50:15.804Z,93.18
2019-01-27T22:52:43.281Z,93.38
2019-01-27T22:55:10.763Z,93.73
2019-01-27T22:57:38.211Z,93.40
2019-01-27T23:00:12.142Z,93.46
2019-01-27T23:02:39.634Z,93.89
2019-01-27T23:05:07.146Z,93.59
2019-01-27T23:07:34.610Z,93.58
2019-01-27T23:10:02.116Z,93.72
2019-01-27T23:12:30.162Z,93.71
2019-01-27T23:14:57.698Z,93.54
2019-01-27T23:17:25.141Z,93.38
2019-01-27T23:19:52.588Z,93.34
2019-01-27T23:22:20.019Z,93.48
2019-01-27T23:24:47.815Z,93.18
2019-01-27T23:27:15.266Z,92.76
2019-01-27T23:29:42.711Z,92.61
2019-01-27T23:32:10.147Z,92.79
2019-01-27T23:34:37.607Z,92.99
2019-01-27T23:37:05.076Z,92.75
2019-01-27T23:39:32.513Z,92.65
2019-01-27T23:41:59.978Z,92.46
2019-01-27T23:44:27.437Z,92.24
2019-01-27T23:46:54.863Z,91.97
2019-01-27T23:49:22.337Z,92.05
2019-01-27T23:51:49.824Z,92.17
2019-01-27T23:54:17.306Z,92.17
2019-01-27T23:56:44.794Z,92.17
2019-01-27T23:59:12.245Z,92.50
